KGRK/GRK METAR and TAF weather

Enter ICAO airport designator
Station Type Date Time Source
KGRK METAR 2022/08/13 10:56 UTC NOAA

KGRK 131056Z AUTO 00000KT 10SM CLR 26/20 A2999 RMK AO2 SLP142 T02570200


Station Type Date Time Source
KGRK Decoded METAR 2022/08/13 10:56 UTC NOAA

Fort Hood, Robert Gray AAF Ft Hood, TX, United States (KGRK) 31-04N 097-49W
Aug 13, 2022 - 06:56 AM EDT / 2022.08.13 1056 UTC
Wind: Calm:0
Visibility: 10 mile(s):0
Sky conditions: clear
Temperature: 78.3 F (25.7 C)
Dew Point: 68.0 F (20.0 C)
Relative Humidity: 70%
Pressure (altimeter): 29.99 in. Hg (1015 hPa)
ob: KGRK 131056Z AUTO 00000KT 10SM CLR 26/20 A2999 RMK AO2 SLP142 T02570200
cycle: 11

Station Type Date Time Source
KGRK TAF 2022/08/13 08:59 UTC NOAA

TAF KGRK 130800Z 1308/1414 16009KT 9999 FEW045 QNH2999INS
BECMG 1318/1319 07012G18KT 9999 SCT065 QNH2988INS
BECMG 1323/1400 09009KT 9999 FEW065 QNH2989INS TX36/1321Z TN24/1311Z

Example: see airport list